Terminal Aerodrome Forecast
Issued by NWS Twin Cities, MN

Home | Current Version | Previous Version | Text Only | Print | Product List | Glossary On
Versions: 1 2 3 4 5 6 7 8 9 10 11 12 13 14
484
FTUS43 KMPX 120520
TAFEAU
TAF
KEAU 120520Z 1206/1306 26009KT P6SM SCT025 OVC050
     FM120700 28006KT P6SM BKN025 OVC035
     FM121100 31011KT P6SM SCT030
     FM121500 32015G22KT P6SM SCT040
     FM122300 31009KT P6SM SKC=

USA.gov is the U.S. government's official web portal to all federal, state and local government web resources and services.